sensor_id;sensor_type;location;lat;lon;timestamp;pressure;altitude;pressure_sealevel;temperature;humidity
82262;BME280;71861;52.364;6.580;2023-10-08T03:00:18;102421.44;;;13.06;90.18
82262;BME280;71861;52.364;6.580;2023-10-08T03:02:45;102425.69;;;13.07;90.20
82262;BME280;71861;52.364;6.580;2023-10-08T03:05:11;102420.47;;;13.07;89.99
82262;BME280;71861;52.364;6.580;2023-10-08T03:07:38;102436.13;;;13.07;90.22
82262;BME280;71861;52.364;6.580;2023-10-08T03:10:05;102448.19;;;13.08;90.08
82262;BME280;71861;52.364;6.580;2023-10-08T03:12:34;102445.44;;;13.09;89.94
82262;BME280;71861;52.364;6.580;2023-10-08T03:15:00;102434.88;;;13.11;89.82
82262;BME280;71861;52.364;6.580;2023-10-08T03:17:38;102431.19;;;13.13;89.99
82262;BME280;71861;52.364;6.580;2023-10-08T03:20:04;102435.44;;;13.14;89.86
82262;BME280;71861;52.364;6.580;2023-10-08T03:22:50;102435.56;;;13.13;89.94
82262;BME280;71861;52.364;6.580;2023-10-08T03:25:15;102439.03;;;13.13;90.09
82262;BME280;71861;52.364;6.580;2023-10-08T03:27:41;102445.88;;;13.14;89.85
82262;BME280;71861;52.364;6.580;2023-10-08T03:30:07;102429.38;;;13.14;89.76
82262;BME280;71861;52.364;6.580;2023-10-08T03:32:38;102431.06;;;13.15;90.03
82262;BME280;71861;52.364;6.580;2023-10-08T03:35:06;102426.66;;;13.15;90.14
82262;BME280;71861;52.364;6.580;2023-10-08T03:37:35;102423.22;;;13.15;90.06
82262;BME280;71861;52.364;6.580;2023-10-08T03:40:06;102428.44;;;13.15;89.93
82262;BME280;71861;52.364;6.580;2023-10-08T03:42:50;102431.06;;;13.15;89.88
82262;BME280;71861;52.364;6.580;2023-10-08T03:45:15;102446.72;;;13.15;89.74
82262;BME280;71861;52.364;6.580;2023-10-08T03:47:47;102450.25;;;13.14;89.71
82262;BME280;71861;52.364;6.580;2023-10-08T03:50:23;102470.47;;;13.12;89.81
82262;BME280;71861;52.364;6.580;2023-10-08T03:52:57;102480.91;;;13.12;89.60
82262;BME280;71861;52.364;6.580;2023-10-08T03:55:25;102457.56;;;13.10;89.68
82262;BME280;71861;52.364;6.580;2023-10-08T03:57:52;102455.75;;;13.11;89.49
82262;BME280;71861;52.364;6.580;2023-10-08T04:00:22;102461.81;;;13.11;89.59
82262;BME280;71861;52.364;6.580;2023-10-08T04:02:54;102480.91;;;13.12;89.46
82262;BME280;71861;52.364;6.580;2023-10-08T04:05:23;102487.78;;;13.13;89.31
82262;BME280;71861;52.364;6.580;2023-10-08T04:07:52;102489.53;;;13.12;89.22
82262;BME280;71861;52.364;6.580;2023-10-08T04:10:23;102505.22;;;13.12;89.01
82262;BME280;71861;52.364;6.580;2023-10-08T04:13:04;102517.47;;;13.12;89.02
82262;BME280;71861;52.364;6.580;2023-10-08T04:15:33;102520.72;;;13.14;88.86
82262;BME280;71861;52.364;6.580;2023-10-08T04:17:59;102514.56;;;13.15;88.90
82262;BME280;71861;52.364;6.580;2023-10-08T04:20:27;102531.59;;;13.19;89.00
82262;BME280;71861;52.364;6.580;2023-10-08T04:23:04;102543.16;;;13.16;88.94
82262;BME280;71861;52.364;6.580;2023-10-08T04:25:30;102543.72;;;13.20;89.08
82262;BME280;71861;52.364;6.580;2023-10-08T04:27:56;102548.94;;;13.20;89.02
82262;BME280;71861;52.364;6.580;2023-10-08T04:30:32;102528.88;;;13.20;88.95
82262;BME280;71861;52.364;6.580;2023-10-08T04:33:01;102534.91;;;13.21;89.19
82262;BME280;71861;52.364;6.580;2023-10-08T04:35:36;102546.19;;;13.21;88.99
82262;BME280;71861;52.364;6.580;2023-10-08T04:38:04;102529.69;;;13.21;89.00
82262;BME280;71861;52.364;6.580;2023-10-08T04:40:33;102539.28;;;13.11;88.89
82262;BME280;71861;52.364;6.580;2023-10-08T04:43:06;102489.84;;;13.19;89.36
82262;BME280;71861;52.364;6.580;2023-10-08T04:45:35;102520.63;;;13.15;89.15
82262;BME280;71861;52.364;6.580;2023-10-08T04:48:02;102513.16;;;13.11;89.41
82262;BME280;71861;52.364;6.580;2023-10-08T04:50:28;102515.13;;;13.09;89.29
82262;BME280;71861;52.364;6.580;2023-10-08T04:52:55;102529.09;;;13.08;89.45
82262;BME280;71861;52.364;6.580;2023-10-08T04:55:24;102538.16;;;13.04;89.47
82262;BME280;71861;52.364;6.580;2023-10-08T04:57:54;102510.44;;;13.03;89.43
82262;BME280;71861;52.364;6.580;2023-10-08T05:00:19;102518.25;;;13.03;89.57
82262;BME280;71861;52.364;6.580;2023-10-08T05:03:04;102541.75;;;13.03;89.62
82262;BME280;71861;52.364;6.580;2023-10-08T05:05:38;102528.69;;;13.03;89.71
82262;BME280;71861;52.364;6.580;2023-10-08T05:08:19;102552.06;;;13.04;89.66
82262;BME280;71861;52.364;6.580;2023-10-08T05:10:53;102553.00;;;13.03;89.78
82262;BME280;71861;52.364;6.580;2023-10-08T05:13:26;102552.31;;;13.01;89.94
82262;BME280;71861;52.364;6.580;2023-10-08T05:16:00;102552.56;;;12.98;89.84
82262;BME280;71861;52.364;6.580;2023-10-08T05:18:44;102543.88;;;12.98;90.43
82262;BME280;71861;52.364;6.580;2023-10-08T05:21:28;102544.84;;;12.97;90.52
82262;BME280;71861;52.364;6.580;2023-10-08T05:24:06;102538.09;;;12.94;90.29
82262;BME280;71861;52.364;6.580;2023-10-08T05:26:40;102559.09;;;12.93;90.44
82262;BME280;71861;52.364;6.580;2023-10-08T05:29:14;102569.53;;;12.93;90.44
82262;BME280;71861;52.364;6.580;2023-10-08T05:32:11;102575.88;;;12.90;90.50
82262;BME280;71861;52.364;6.580;2023-10-08T05:34:55;102578.47;;;12.90;90.60
82262;BME280;71861;52.364;6.580;2023-10-08T05:37:43;102596.88;;;12.89;90.47
82262;BME280;71861;52.364;6.580;2023-10-08T05:40:12;102593.28;;;12.90;90.56
82262;BME280;71861;52.364;6.580;2023-10-08T05:42:46;102581.06;;;12.90;90.46
82262;BME280;71861;52.364;6.580;2023-10-08T05:45:12;102574.75;;;12.93;90.36
82262;BME280;71861;52.364;6.580;2023-10-08T05:47:37;102587.81;;;12.93;90.49
82262;BME280;71861;52.364;6.580;2023-10-08T05:50:03;102600.84;;;12.93;90.47
82262;BME280;71861;52.364;6.580;2023-10-08T05:53:03;102623.50;;;12.92;90.52
82262;BME280;71861;52.364;6.580;2023-10-08T05:55:40;102632.16;;;12.93;90.39
82262;BME280;71861;52.364;6.580;2023-10-08T05:58:12;102623.50;;;12.92;90.20
82262;BME280;71861;52.364;6.580;2023-10-08T06:00:47;102616.38;;;12.94;90.42
82262;BME280;71861;52.364;6.580;2023-10-08T06:03:16;102618.84;;;12.96;90.37
82262;BME280;71861;52.364;6.580;2023-10-08T06:06:07;102617.91;;;12.97;90.23
82262;BME280;71861;52.364;6.580;2023-10-08T06:08:36;102641.41;;;12.97;90.22
82262;BME280;71861;52.364;6.580;2023-10-08T06:11:20;102649.09;;;12.98;90.04
82262;BME280;71861;52.364;6.580;2023-10-08T06:14:04;102630.75;;;13.00;90.06
82262;BME280;71861;52.364;6.580;2023-10-08T06:16:39;102631.41;;;13.02;89.71
82262;BME280;71861;52.364;6.580;2023-10-08T06:19:07;102643.53;;;13.03;89.75
82262;BME280;71861;52.364;6.580;2023-10-08T06:21:34;102639.09;;;13.03;89.72
82262;BME280;71861;52.364;6.580;2023-10-08T06:23:59;102629.63;;;13.02;89.67
82262;BME280;71861;52.364;6.580;2023-10-08T06:26:25;102624.41;;;13.02;89.48
82262;BME280;71861;52.364;6.580;2023-10-08T06:28:52;102621.94;;;13.01;89.63
82262;BME280;71861;52.364;6.580;2023-10-08T06:31:22;102614.13;;;13.01;89.45
82262;BME280;71861;52.364;6.580;2023-10-08T06:33:50;102618.38;;;13.02;89.43
82262;BME280;71861;52.364;6.580;2023-10-08T06:36:15;102619.19;;;13.02;89.42
82262;BME280;71861;52.364;6.580;2023-10-08T06:38:44;102622.66;;;13.03;89.22
82262;BME280;71861;52.364;6.580;2023-10-08T06:41:10;102607.00;;;13.03;89.24
82262;BME280;71861;52.364;6.580;2023-10-08T06:43:38;102605.88;;;13.05;89.18
82262;BME280;71861;52.364;6.580;2023-10-08T06:46:04;102600.66;;;13.05;89.27
82262;BME280;71861;52.364;6.580;2023-10-08T06:48:32;102610.41;;;13.03;89.22
82262;BME280;71861;52.364;6.580;2023-10-08T06:50:59;102621.69;;;13.04;89.17
82262;BME280;71861;52.364;6.580;2023-10-08T06:53:32;102619.19;;;13.02;89.31
82262;BME280;71861;52.364;6.580;2023-10-08T06:55:58;102628.81;;;13.02;89.26
82262;BME280;71861;52.364;6.580;2023-10-08T06:58:28;102635.09;;;12.99;89.46
82262;BME280;71861;52.364;6.580;2023-10-08T07:00:56;102654.44;;;12.97;89.55
82262;BME280;71861;52.364;6.580;2023-10-08T07:03:23;102671.88;;;12.96;89.66
82262;BME280;71861;52.364;6.580;2023-10-08T07:05:49;102686.69;;;12.96;89.43
82262;BME280;71861;52.364;6.580;2023-10-08T07:08:23;102692.63;;;12.98;89.42
82262;BME280;71861;52.364;6.580;2023-10-08T07:10:52;102686.44;;;12.99;89.41
82262;BME280;71861;52.364;6.580;2023-10-08T07:13:19;102665.47;;;13.00;89.43
82262;BME280;71861;52.364;6.580;2023-10-08T07:15:46;102661.78;;;13.03;89.39
82262;BME280;71861;52.364;6.580;2023-10-08T07:18:12;102664.16;;;13.06;89.49
82262;BME280;71861;52.364;6.580;2023-10-08T07:20:48;102676.22;;;13.07;89.30
82262;BME280;71861;52.364;6.580;2023-10-08T07:23:18;102677.19;;;13.06;89.10
82262;BME280;71861;52.364;6.580;2023-10-08T07:25:51;102680.47;;;13.08;89.05
82262;BME280;71861;52.364;6.580;2023-10-08T07:28:21;102681.06;;;13.11;89.05
82262;BME280;71861;52.364;6.580;2023-10-08T07:30:46;102700.59;;;13.17;89.15
82262;BME280;71861;52.364;6.580;2023-10-08T07:33:13;102698.41;;;13.22;88.83
82262;BME280;71861;52.364;6.580;2023-10-08T07:35:46;102702.84;;;13.31;88.74
82262;BME280;71861;52.364;6.580;2023-10-08T07:38:29;102724.63;;;13.41;88.56
82262;BME280;71861;52.364;6.580;2023-10-08T07:40:55;102721.03;;;13.42;88.06
82262;BME280;71861;52.364;6.580;2023-10-08T07:43:21;102722.72;;;13.43;87.56
82262;BME280;71861;52.364;6.580;2023-10-08T07:45:46;102706.22;;;13.43;87.50
82262;BME280;71861;52.364;6.580;2023-10-08T07:48:11;102689.31;;;13.47;87.77
82262;BME280;71861;52.364;6.580;2023-10-08T07:50:42;102681.06;;;13.51;87.23
82262;BME280;71861;52.364;6.580;2023-10-08T07:53:08;102691.13;;;13.56;87.26
82262;BME280;71861;52.364;6.580;2023-10-08T07:55:34;102697.88;;;13.58;86.79
82262;BME280;71861;52.364;6.580;2023-10-08T07:58:00;102691.69;;;13.59;85.94
82262;BME280;71861;52.364;6.580;2023-10-08T08:00:26;102687.03;;;13.63;85.98
82262;BME280;71861;52.364;6.580;2023-10-08T08:02:55;102703.94;;;13.68;85.81
82262;BME280;71861;52.364;6.580;2023-10-08T08:05:21;102690.63;;;13.71;86.06
82262;BME280;71861;52.364;6.580;2023-10-08T08:07:47;102681.56;;;13.75;85.07
82262;BME280;71861;52.364;6.580;2023-10-08T08:10:14;102698.63;;;13.79;84.93
82262;BME280;71861;52.364;6.580;2023-10-08T08:12:39;102710.47;;;13.83;85.03
82262;BME280;71861;52.364;6.580;2023-10-08T08:15:05;102712.56;;;13.89;84.41
82262;BME280;71861;52.364;6.580;2023-10-08T08:17:40;102713.78;;;13.95;83.43
82262;BME280;71861;52.364;6.580;2023-10-08T08:20:06;102736.25;;;13.97;83.61
82262;BME280;71861;52.364;6.580;2023-10-08T08:22:42;102740.22;;;14.01;82.34
82262;BME280;71861;52.364;6.580;2023-10-08T08:25:14;102749.31;;;14.07;82.89
82262;BME280;71861;52.364;6.580;2023-10-08T08:27:58;102747.16;;;14.21;81.20
82262;BME280;71861;52.364;6.580;2023-10-08T08:30:24;102744.16;;;14.54;82.15
82262;BME280;71861;52.364;6.580;2023-10-08T08:32:51;102742.66;;;14.80;81.36
82262;BME280;71861;52.364;6.580;2023-10-08T08:35:16;102744.16;;;15.02;78.88
82262;BME280;71861;52.364;6.580;2023-10-08T08:37:42;102743.28;;;15.11;78.88
82262;BME280;71861;52.364;6.580;2023-10-08T08:40:08;102740.78;;;15.19;78.58
82262;BME280;71861;52.364;6.580;2023-10-08T08:42:44;102733.00;;;15.37;75.88
82262;BME280;71861;52.364;6.580;2023-10-08T08:45:09;102748.50;;;15.67;75.46
82262;BME280;71861;52.364;6.580;2023-10-08T08:47:35;102739.84;;;16.11;74.40
82262;BME280;71861;52.364;6.580;2023-10-08T08:50:02;102757.00;;;16.50;74.53
82262;BME280;71861;52.364;6.580;2023-10-08T08:52:33;102753.53;;;16.67;71.33
82262;BME280;71861;52.364;6.580;2023-10-08T08:54:58;102747.53;;;16.57;69.63
82262;BME280;71861;52.364;6.580;2023-10-08T08:57:28;102748.44;;;16.48;68.93
82262;BME280;71861;52.364;6.580;2023-10-08T08:59:53;102750.13;;;16.39;70.39
82262;BME280;71861;52.364;6.580;2023-10-08T09:02:20;102747.09;;;16.44;70.72
82262;BME280;71861;52.364;6.580;2023-10-08T09:04:47;102743.31;;;16.29;69.10
82262;BME280;71861;52.364;6.580;2023-10-08T09:07:13;102750.03;;;16.14;68.92
82262;BME280;71861;52.364;6.580;2023-10-08T09:09:38;102744.31;;;16.01;70.41
82262;BME280;71861;52.364;6.580;2023-10-08T09:12:04;102742.13;;;15.96;70.90
82262;BME280;71861;52.364;6.580;2023-10-08T09:14:30;102754.34;;;15.88;70.23
82262;BME280;71861;52.364;6.580;2023-10-08T09:16:57;102749.69;;;15.82;70.29
82262;BME280;71861;52.364;6.580;2023-10-08T09:19:25;102763.38;;;15.76;70.76
82262;BME280;71861;52.364;6.580;2023-10-08T09:22:05;102767.63;;;15.77;70.63
82262;BME280;71861;52.364;6.580;2023-10-08T09:24:34;102775.94;;;15.72;71.02
82262;BME280;71861;52.364;6.580;2023-10-08T09:27:02;102778.41;;;15.74;70.83
82262;BME280;71861;52.364;6.580;2023-10-08T09:29:27;102771.09;;;15.77;71.06
82262;BME280;71861;52.364;6.580;2023-10-08T09:31:53;102773.72;;;15.77;69.70
82262;BME280;71861;52.364;6.580;2023-10-08T09:34:21;102772.19;;;15.75;70.04
82262;BME280;71861;52.364;6.580;2023-10-08T09:36:46;102763.47;;;15.84;70.96
82262;BME280;71861;52.364;6.580;2023-10-08T09:39:11;102758.84;;;15.95;69.83
82262;BME280;71861;52.364;6.580;2023-10-08T09:41:46;102744.09;;;15.94;68.22
82262;BME280;71861;52.364;6.580;2023-10-08T09:44:12;102738.31;;;15.91;68.24
82262;BME280;71861;52.364;6.580;2023-10-08T09:46:37;102752.31;;;15.99;69.64
82262;BME280;71861;52.364;6.580;2023-10-08T09:49:03;102749.44;;;16.02;68.73
82262;BME280;71861;52.364;6.580;2023-10-08T09:51:34;102750.34;;;16.11;68.53
82262;BME280;71861;52.364;6.580;2023-10-08T09:56:31;102749.00;;;16.07;67.37
82262;BME280;71861;52.364;6.580;2023-10-08T09:58:56;102764.78;;;16.15;68.90
82262;BME280;71861;52.364;6.580;2023-10-08T10:01:21;102757.69;;;16.25;68.21
82262;BME280;71861;52.364;6.580;2023-10-08T10:03:47;102751.84;;;16.31;67.73
82262;BME280;71861;52.364;6.580;2023-10-08T10:06:13;102741.59;;;16.37;67.67
82262;BME280;71861;52.364;6.580;2023-10-08T10:08:40;102743.97;;;16.31;67.41
82262;BME280;71861;52.364;6.580;2023-10-08T10:11:06;102744.97;;;16.30;65.43
82262;BME280;71861;52.364;6.580;2023-10-08T10:13:38;102756.34;;;16.38;66.27
82262;BME280;71861;52.364;6.580;2023-10-08T10:16:04;102754.84;;;16.45;65.95
82262;BME280;71861;52.364;6.580;2023-10-08T10:18:32;102755.78;;;16.62;66.29
82262;BME280;71861;52.364;6.580;2023-10-08T10:20:58;102757.44;;;16.81;65.56
82262;BME280;71861;52.364;6.580;2023-10-08T10:23:34;102759.19;;;16.98;64.62
82262;BME280;71861;52.364;6.580;2023-10-08T10:26:01;102770.25;;;17.09;64.15
82262;BME280;71861;52.364;6.580;2023-10-08T10:28:27;102779.66;;;17.12;64.50
82262;BME280;71861;52.364;6.580;2023-10-08T10:30:53;102772.28;;;17.15;63.75
82262;BME280;71861;52.364;6.580;2023-10-08T10:33:20;102783.69;;;17.24;65.07
82262;BME280;71861;52.364;6.580;2023-10-08T10:35:50;102785.94;;;17.19;63.24
82262;BME280;71861;52.364;6.580;2023-10-08T10:38:18;102788.63;;;17.27;63.79
82262;BME280;71861;52.364;6.580;2023-10-08T10:40:48;102783.22;;;17.28;64.45
82262;BME280;71861;52.364;6.580;2023-10-08T10:43:22;102779.72;;;17.45;63.08
82262;BME280;71861;52.364;6.580;2023-10-08T10:45:53;102776.47;;;17.51;63.46
82262;BME280;71861;52.364;6.580;2023-10-08T10:48:20;102761.72;;;17.58;60.30
82262;BME280;71861;52.364;6.580;2023-10-08T10:50:46;102771.91;;;17.61;62.98
82262;BME280;71861;52.364;6.580;2023-10-08T10:53:37;102778.56;;;17.81;63.46
82262;BME280;71861;52.364;6.580;2023-10-08T10:56:22;102769.44;;;18.01;61.21
82262;BME280;71861;52.364;6.580;2023-10-08T10:58:58;102765.66;;;17.96;60.58
82262;BME280;71861;52.364;6.580;2023-10-08T11:01:27;102760.88;;;17.91;60.06
82262;BME280;71861;52.364;6.580;2023-10-08T11:03:55;102761.69;;;17.84;60.31
82262;BME280;71861;52.364;6.580;2023-10-08T11:06:22;102758.41;;;17.90;59.91
82262;BME280;71861;52.364;6.580;2023-10-08T11:08:51;102767.09;;;17.82;59.82
82262;BME280;71861;52.364;6.580;2023-10-08T11:11:17;102776.06;;;17.64;58.17
82262;BME280;71861;52.364;6.580;2023-10-08T11:13:43;102773.25;;;17.65;59.16
82262;BME280;71861;52.364;6.580;2023-10-08T11:16:12;102773.25;;;17.65;59.03
82262;BME280;71861;52.364;6.580;2023-10-08T11:18:43;102783.00;;;17.73;59.40
82262;BME280;71861;52.364;6.580;2023-10-08T11:21:10;102783.56;;;17.92;59.82
82262;BME280;71861;52.364;6.580;2023-10-08T11:23:55;102783.66;;;18.16;57.63
82262;BME280;71861;52.364;6.580;2023-10-08T11:26:24;102780.06;;;18.34;57.65
82262;BME280;71861;52.364;6.580;2023-10-08T11:29:00;102770.91;;;18.46;57.04
82262;BME280;71861;52.364;6.580;2023-10-08T11:31:26;102769.94;;;18.55;56.65
82262;BME280;71861;52.364;6.580;2023-10-08T11:33:54;102768.94;;;18.72;56.51
82262;BME280;71861;52.364;6.580;2023-10-08T11:36:23;102755.09;;;19.02;55.20
82262;BME280;71861;52.364;6.580;2023-10-08T11:38:56;102743.34;;;19.20;55.28
82262;BME280;71861;52.364;6.580;2023-10-08T11:41:27;102734.00;;;19.34;53.45
82262;BME280;71861;52.364;6.580;2023-10-08T11:43:54;102731.94;;;19.52;54.09
82262;BME280;71861;52.364;6.580;2023-10-08T11:48:57;102722.97;;;19.69;53.25
82262;BME280;71861;52.364;6.580;2023-10-08T11:51:24;102715.41;;;19.97;52.74
82262;BME280;71861;52.364;6.580;2023-10-08T11:53:49;102719.59;;;20.36;53.85
82262;BME280;71861;52.364;6.580;2023-10-08T11:56:14;102700.94;;;20.60;51.92
82262;BME280;71861;52.364;6.580;2023-10-08T11:58:40;102697.75;;;20.65;52.20
82262;BME280;71861;52.364;6.580;2023-10-08T12:01:09;102689.38;;;20.61;50.98
82262;BME280;71861;52.364;6.580;2023-10-08T12:03:40;102677.00;;;20.39;49.81
82262;BME280;71861;52.364;6.580;2023-10-08T12:06:05;102671.50;;;20.26;51.67
82262;BME280;71861;52.364;6.580;2023-10-08T12:08:31;102661.53;;;20.36;50.97
82262;BME280;71861;52.364;6.580;2023-10-08T12:11:04;102653.56;;;20.59;50.30
82262;BME280;71861;52.364;6.580;2023-10-08T12:13:31;102662.81;;;20.40;48.60
82262;BME280;71861;52.364;6.580;2023-10-08T12:15:57;102660.31;;;20.61;49.99
82262;BME280;71861;52.364;6.580;2023-10-08T12:18:37;102654.00;;;20.99;50.40
82262;BME280;71861;52.364;6.580;2023-10-08T12:21:06;102653.19;;;20.99;49.81
82262;BME280;71861;52.364;6.580;2023-10-08T12:23:40;102646.94;;;20.92;50.14
82262;BME280;71861;52.364;6.580;2023-10-08T12:26:06;102644.03;;;20.72;49.27
82262;BME280;71861;52.364;6.580;2023-10-08T12:28:32;102639.41;;;20.37;50.62
82262;BME280;71861;52.364;6.580;2023-10-08T12:30:59;102650.88;;;19.99;51.10
82262;BME280;71861;52.364;6.580;2023-10-08T12:33:25;102641.25;;;19.83;52.86
82262;BME280;71861;52.364;6.580;2023-10-08T12:35:51;102640.69;;;19.96;52.41
82262;BME280;71861;52.364;6.580;2023-10-08T12:38:21;102636.63;;;20.08;51.76
82262;BME280;71861;52.364;6.580;2023-10-08T12:40:50;102623.34;;;20.02;51.76
82262;BME280;71861;52.364;6.580;2023-10-08T12:43:18;102631.09;;;20.03;51.58
82262;BME280;71861;52.364;6.580;2023-10-08T12:45:53;102626.16;;;20.23;53.84
82262;BME280;71861;52.364;6.580;2023-10-08T12:50:44;102634.03;;;20.31;53.17
82262;BME280;71861;52.364;6.580;2023-10-08T12:53:09;102630.47;;;19.93;52.20
82262;BME280;71861;52.364;6.580;2023-10-08T12:55:36;102629.69;;;19.62;52.89
82262;BME280;71861;52.364;6.580;2023-10-08T12:58:04;102632.50;;;19.30;54.40
82262;BME280;71861;52.364;6.580;2023-10-08T13:00:34;102635.53;;;19.11;55.28
82262;BME280;71861;52.364;6.580;2023-10-08T13:03:02;102628.50;;;18.95;55.34
82262;BME280;71861;52.364;6.580;2023-10-08T13:05:30;102635.59;;;18.79;55.99
82262;BME280;71861;52.364;6.580;2023-10-08T13:07:55;102648.81;;;18.55;56.74
82262;BME280;71861;52.364;6.580;2023-10-08T13:10:23;102647.16;;;18.29;57.58
82262;BME280;71861;52.364;6.580;2023-10-08T13:12:48;102646.16;;;18.14;58.11
82262;BME280;71861;52.364;6.580;2023-10-08T13:15:14;102647.13;;;17.97;58.34
82262;BME280;71861;52.364;6.580;2023-10-08T13:17:39;102650.91;;;17.87;59.05
82262;BME280;71861;52.364;6.580;2023-10-08T13:20:08;102636.72;;;17.80;60.05
82262;BME280;71861;52.364;6.580;2023-10-08T13:22:36;102648.25;;;17.79;60.12
82262;BME280;71861;52.364;6.580;2023-10-08T13:25:02;102643.47;;;17.74;60.61
82262;BME280;71861;52.364;6.580;2023-10-08T13:27:29;102639.84;;;17.67;60.93
82262;BME280;71861;52.364;6.580;2023-10-08T13:29:55;102644.13;;;17.68;60.73
82262;BME280;71861;52.364;6.580;2023-10-08T13:32:20;102645.72;;;17.61;60.52
82262;BME280;71861;52.364;6.580;2023-10-08T13:34:45;102646.22;;;17.57;60.61
82262;BME280;71861;52.364;6.580;2023-10-08T13:37:11;102635.22;;;17.53;60.99
82262;BME280;71861;52.364;6.580;2023-10-08T13:39:36;102642.59;;;17.50;61.39
82262;BME280;71861;52.364;6.580;2023-10-08T13:42:01;102645.06;;;17.51;61.67
82262;BME280;71861;52.364;6.580;2023-10-08T13:44:28;102664.75;;;17.47;60.83
82262;BME280;71861;52.364;6.580;2023-10-08T13:46:56;102671.44;;;17.42;61.18
82262;BME280;71861;52.364;6.580;2023-10-08T13:49:23;102656.22;;;17.45;61.76
82262;BME280;71861;52.364;6.580;2023-10-08T13:51:48;102654.25;;;17.47;61.92
82262;BME280;71861;52.364;6.580;2023-10-08T13:54:21;102669.19;;;17.47;61.96
82262;BME280;71861;52.364;6.580;2023-10-08T13:56:46;102656.41;;;17.52;62.30
82262;BME280;71861;52.364;6.580;2023-10-08T13:59:13;102654.56;;;17.52;61.82
82262;BME280;71861;52.364;6.580;2023-10-08T14:01:39;102632.59;;;17.53;62.30
82262;BME280;71861;52.364;6.580;2023-10-08T14:04:10;102627.00;;;17.56;62.04
82262;BME280;71861;52.364;6.580;2023-10-08T14:06:37;102625.34;;;17.47;61.29
82262;BME280;71861;52.364;6.580;2023-10-08T14:09:05;102628.88;;;17.38;62.26
82262;BME280;71861;52.364;6.580;2023-10-08T14:11:33;102632.16;;;17.40;62.66
82262;BME280;71861;52.364;6.580;2023-10-08T14:13:59;102603.75;;;17.36;62.38
82262;BME280;71861;52.364;6.580;2023-10-08T14:16:35;102603.41;;;17.39;62.71
82262;BME280;71861;52.364;6.580;2023-10-08T14:19:01;102601.78;;;17.38;62.74
82262;BME280;71861;52.364;6.580;2023-10-08T14:21:29;102596.19;;;17.33;62.76
82262;BME280;71861;52.364;6.580;2023-10-08T14:24:03;102585.84;;;17.31;62.78
82262;BME280;71861;52.364;6.580;2023-10-08T14:26:30;102586.16;;;17.28;63.31
82262;BME280;71861;52.364;6.580;2023-10-08T14:29:01;102575.44;;;17.22;63.78
82262;BME280;71861;52.364;6.580;2023-10-08T14:31:32;102608.94;;;17.20;63.90
82262;BME280;71861;52.364;6.580;2023-10-08T14:33:58;102636.34;;;17.17;63.80
82262;BME280;71861;52.364;6.580;2023-10-08T14:36:50;102651.09;;;17.10;63.91
82262;BME280;71861;52.364;6.580;2023-10-08T14:39:34;102648.78;;;17.07;64.52
82262;BME280;71861;52.364;6.580;2023-10-08T14:42:18;102640.88;;;16.99;64.46
82262;BME280;71861;52.364;6.580;2023-10-08T14:45:03;102634.94;;;16.97;65.23
82262;BME280;71861;52.364;6.580;2023-10-08T14:47:28;102616.56;;;16.97;65.18
82262;BME280;71861;52.364;6.580;2023-10-08T14:49:54;102605.06;;;16.98;64.52
82262;BME280;71861;52.364;6.580;2023-10-08T14:52:19;102596.53;;;16.96;64.31
82262;BME280;71861;52.364;6.580;2023-10-08T14:54:45;102603.25;;;16.99;64.60
82262;BME280;71861;52.364;6.580;2023-10-08T14:57:10;102594.91;;;17.03;64.26
82262;BME280;71861;52.364;6.580;2023-10-08T14:59:39;102599.16;;;17.04;64.27
82262;BME280;71861;52.364;6.580;2023-10-08T15:02:04;102593.91;;;17.04;64.28
82262;BME280;71861;52.364;6.580;2023-10-08T15:04:31;102588.06;;;17.10;64.26
82262;BME280;71861;52.364;6.580;2023-10-08T15:07:00;102581.34;;;17.16;64.39
82262;BME280;71861;52.364;6.580;2023-10-08T15:09:26;102566.25;;;17.18;64.50
82262;BME280;71861;52.364;6.580;2023-10-08T15:11:51;102560.84;;;17.19;64.47
82262;BME280;71861;52.364;6.580;2023-10-08T15:14:17;102568.72;;;17.19;64.49
82262;BME280;71861;52.364;6.580;2023-10-08T15:16:45;102562.13;;;17.07;64.55
82262;BME280;71861;52.364;6.580;2023-10-08T15:19:12;102567.53;;;17.06;65.06
82262;BME280;71861;52.364;6.580;2023-10-08T15:21:40;102563.72;;;17.00;65.18
82262;BME280;71861;52.364;6.580;2023-10-08T15:24:06;102585.34;;;16.94;65.70
82262;BME280;71861;52.364;6.580;2023-10-08T15:26:34;102588.59;;;16.88;65.82
82262;BME280;71861;52.364;6.580;2023-10-08T15:28:59;102586.31;;;16.85;66.02
82262;BME280;71861;52.364;6.580;2023-10-08T15:31:24;102572.97;;;16.79;65.94
82262;BME280;71861;52.364;6.580;2023-10-08T15:33:49;102574.44;;;16.73;66.19
82262;BME280;71861;52.364;6.580;2023-10-08T15:36:15;102559.78;;;16.71;66.55
82262;BME280;71861;52.364;6.580;2023-10-08T15:38:40;102559.00;;;16.70;66.99
82262;BME280;71861;52.364;6.580;2023-10-08T15:41:05;102553.16;;;16.58;66.71
82262;BME280;71861;52.364;6.580;2023-10-08T15:43:30;102549.38;;;16.53;66.66
82262;BME280;71861;52.364;6.580;2023-10-08T15:45:56;102552.94;;;16.44;67.31
82262;BME280;71861;52.364;6.580;2023-10-08T15:48:21;102547.44;;;16.37;67.68
82262;BME280;71861;52.364;6.580;2023-10-08T15:50:46;102538.38;;;16.32;67.58
82262;BME280;71861;52.364;6.580;2023-10-08T15:53:12;102541.16;;;16.30;68.25
82262;BME280;71861;52.364;6.580;2023-10-08T15:55:38;102544.75;;;16.29;68.48
82262;BME280;71861;52.364;6.580;2023-10-08T15:58:03;102541.47;;;16.27;68.51
82262;BME280;71861;52.364;6.580;2023-10-08T16:00:28;102530.16;;;16.27;68.74
82262;BME280;71861;52.364;6.580;2023-10-08T16:02:54;102531.59;;;16.21;68.57
82262;BME280;71861;52.364;6.580;2023-10-08T16:05:19;102533.53;;;16.19;68.96
82262;BME280;71861;52.364;6.580;2023-10-08T16:07:44;102534.00;;;16.15;69.00